Time;durP1;ratioP1;P1;durP2;ratioP2;P2;SDS_P1;SDS_P2;PMS_P1;PMS_P2;Temp;Humidity;BMP_temperature;BMP_pressure;BME280_temperature;BME280_humidity;BME280_pressure;Samples;Min_cycle;Max_cycle;Signal;HPM_P1;HPM_P2
2022/09/02 00:00:09;;;;;;;7.30;3.27;;;14.10;99.90;;;-141.84;65.99;20214.22;5032561;28;20669;-63
2022/09/02 00:02:41;;;;;;;3.72;2.80;;;14.10;99.90;;;-141.84;65.74;20232.53;5032013;28;20221;-62
2022/09/02 00:05:09;;;;;;;2.97;2.73;;;14.10;99.90;;;-141.84;66.09;20208.13;5032173;28;20229;-62
2022/09/02 00:07:37;;;;;;;3.07;2.63;;;14.00;99.90;;;-141.84;66.46;20200.00;5031932;28;20261;-62
2022/09/02 00:10:06;;;;;;;3.10;2.90;;;14.00;99.90;;;-141.84;66.85;20169.53;5032387;28;20625;-62
2022/09/02 00:12:36;;;;;;;3.57;2.90;;;13.90;99.90;;;-141.84;66.89;20161.38;5031854;28;20238;-62
2022/09/02 00:15:06;;;;;;;3.07;2.70;;;13.90;99.90;;;-141.84;66.38;20151.22;5032439;28;20232;-61
2022/09/02 00:17:34;;;;;;;3.10;2.80;;;13.80;99.90;;;-141.84;66.88;20171.56;5031745;28;20304;-62
2022/09/02 00:20:03;;;;;;;3.43;3.10;;;13.80;99.90;;;-141.84;67.05;20159.34;5032235;28;20304;-62
2022/09/02 00:22:32;;;;;;;4.07;3.13;;;13.80;99.90;;;-141.84;66.99;20147.16;5031845;28;20226;-62
2022/09/02 00:25:00;;;;;;;3.73;2.87;;;13.80;99.90;;;-141.84;67.29;20155.28;5032241;28;20222;-63
2022/09/02 00:27:28;;;;;;;3.63;3.10;;;13.80;99.90;;;-141.84;65.65;20189.84;5032375;28;20743;-62
2022/09/02 00:29:58;;;;;;;3.70;3.20;;;13.90;99.90;;;-141.84;66.75;20151.22;5032021;28;20225;-63
2022/09/02 00:32:28;;;;;;;4.00;2.80;;;13.80;99.90;;;-141.84;66.90;20155.28;5031821;28;20313;-62
2022/09/02 00:34:57;;;;;;;3.17;2.80;;;13.80;99.90;;;-141.84;67.24;20128.88;5031859;28;20317;-62
2022/09/02 00:37:26;;;;;;;3.33;2.93;;;13.80;99.90;;;-141.84;67.52;20118.69;5032048;28;20249;-62
2022/09/02 00:39:55;;;;;;;3.40;2.93;;;13.70;99.90;;;-141.84;67.15;20104.47;5031899;28;20584;-61
2022/09/02 00:42:25;;;;;;;4.00;2.80;;;13.70;99.90;;;-141.84;66.89;20134.97;5032462;28;20247;-62
2022/09/02 00:44:54;;;;;;;3.37;3.07;;;13.70;99.90;;;-141.84;67.32;20157.31;5050103;28;20589;-64
2022/09/02 00:47:24;;;;;;;3.83;2.90;;;13.70;99.90;;;-141.84;67.25;20147.16;5051559;28;20229;-62
2022/09/02 00:49:54;;;;;;;3.20;2.90;;;13.70;99.90;;;-141.84;67.42;20128.88;5051823;28;20313;-61
2022/09/02 00:52:28;;;;;;;5.03;3.20;;;13.70;99.90;;;-141.84;67.53;20112.59;5054241;28;20224;-63
2022/09/02 00:55:00;;;;;;;3.80;2.80;;;13.70;99.90;;;-141.84;67.89;20094.31;5055835;28;20225;-62
2022/09/02 00:57:36;;;;;;;3.37;2.97;;;13.70;99.90;;;-141.84;68.11;20092.28;5056263;28;20285;-61
2022/09/02 01:00:10;;;;;;;3.10;2.80;;;13.60;99.90;;;-141.84;67.82;20090.25;5055936;28;20205;-63
2022/09/02 01:02:42;;;;;;;2.90;2.70;;;13.60;99.90;;;-141.84;68.11;20065.84;5055560;28;20225;-63
2022/09/02 01:05:14;;;;;;;3.80;2.80;;;13.60;99.90;;;-141.84;68.15;20084.16;5055397;28;20731;-61
2022/09/02 01:07:43;;;;;;;3.30;3.00;;;13.50;99.90;;;-141.84;68.21;20100.41;5055632;28;20645;-62
2022/09/02 01:10:20;;;;;;;4.50;3.40;;;13.60;99.90;;;-141.84;67.89;20122.78;5055297;28;20271;-62
2022/09/02 01:12:49;;;;;;;3.97;3.07;;;13.50;99.90;;;-141.84;68.18;20074.00;5055192;28;20221;-62
2022/09/02 01:15:17;;;;;;;3.73;3.13;;;13.50;99.90;;;-141.84;68.43;20051.63;5054967;28;20228;-61
2022/09/02 01:17:50;;;;;;;7.80;3.20;;;13.50;99.90;;;-141.84;67.31;20112.59;5054442;28;20235;-63
2022/09/02 01:20:23;;;;;;;3.60;2.93;;;13.60;99.90;;;-141.84;68.09;20074.00;5054561;28;20607;-62
2022/09/02 01:22:56;;;;;;;3.37;2.90;;;13.50;99.90;;;-141.84;68.50;20061.78;5054406;28;20232;-62
2022/09/02 01:25:29;;;;;;;3.87;3.00;;;13.40;99.90;;;-141.84;68.57;20037.41;5054446;28;20256;-63
2022/09/02 01:28:00;;;;;;;5.90;3.50;;;13.40;99.90;;;-141.84;68.64;20045.53;5054313;28;20233;-62
2022/09/02 01:30:30;;;;;;;3.17;2.87;;;13.30;99.90;;;-141.84;68.69;20041.47;5055363;28;20190;-62
2022/09/02 01:32:59;;;;;;;4.80;3.30;;;13.30;99.90;;;-141.84;68.95;20057.72;5054635;28;20696;-63
2022/09/02 01:35:28;;;;;;;3.63;3.33;;;13.30;99.90;;;-141.84;69.46;20039.44;5053798;28;20225;-63
2022/09/02 01:38:00;;;;;;;3.77;3.37;;;13.20;99.90;;;-141.84;69.02;20041.47;5054182;28;20231;-63
2022/09/02 01:40:31;;;;;;;3.77;3.30;;;13.30;99.90;;;-141.84;68.12;20055.69;5054077;28;20253;-62
2022/09/02 01:43:05;;;;;;;3.63;3.03;;;13.30;99.90;;;-141.84;68.61;20043.50;5054005;28;20241;-64
2022/09/02 01:45:35;;;;;;;3.23;2.93;;;13.30;99.90;;;-141.84;68.96;20002.84;5053958;28;20643;-62
2022/09/02 01:48:05;;;;;;;3.70;3.40;;;13.20;99.90;;;-141.84;69.52;20010.97;5054515;28;20198;-61
2022/09/02 01:50:35;;;;;;;3.97;3.30;;;13.20;99.90;;;-141.84;69.06;20010.97;5053916;28;20789;-63
2022/09/02 01:53:06;;;;;;;4.77;4.03;;;13.20;99.90;;;-141.84;68.86;19998.78;5054020;28;20312;-62
2022/09/02 01:55:35;;;;;;;4.07;2.97;;;13.20;99.90;;;-141.84;68.82;20017.09;5053612;28;20712;-62
2022/09/02 01:58:04;;;;;;;3.77;3.40;;;13.20;99.90;;;-141.84;69.37;20029.28;5053464;28;20235;-62
2022/09/02 02:00:32;;;;;;;4.00;3.60;;;13.20;99.90;;;-141.84;69.01;20010.97;5053922;28;20203;-63
2022/09/02 02:03:00;;;;;;;7.97;3.63;;;13.10;99.90;;;-141.84;69.01;20021.16;5053060;28;20221;-65
2022/09/02 02:05:30;;;;;;;3.40;3.10;;;13.10;99.90;;;-141.84;69.62;19976.44;5053416;28;20222;-61
2022/09/02 02:08:00;;;;;;;3.50;3.20;;;13.10;99.90;;;-141.84;70.00;19984.56;5053697;28;20244;-62
2022/09/02 02:10:29;;;;;;;5.00;3.50;;;13.10;99.90;;;-141.84;69.99;19966.28;5053613;28;20230;-61
2022/09/02 02:12:57;;;;;;;4.80;3.13;;;13.00;99.90;;;-141.84;69.74;19984.56;5053190;28;20697;-62
2022/09/02 02:15:26;;;;;;;3.70;3.40;;;13.00;99.90;;;-141.84;70.12;19964.25;5053946;28;20228;-62
2022/09/02 02:17:53;;;;;;;3.70;3.40;;;12.90;99.90;;;-141.84;70.09;19937.81;5053335;28;20293;-62
2022/09/02 02:20:21;;;;;;;4.10;3.40;;;12.90;99.90;;;-141.84;70.43;19941.88;5053320;28;20233;-63
2022/09/02 02:22:50;;;;;;;3.80;3.47;;;12.90;99.90;;;-141.84;70.33;19941.88;5053324;28;20263;-62
2022/09/02 02:25:18;;;;;;;4.20;3.80;;;12.90;99.90;;;-141.84;70.06;19958.13;5053221;28;20235;-62
2022/09/02 02:27:48;;;;;;;4.20;3.47;;;12.90;99.90;;;-141.84;69.90;19950.00;5053278;28;20574;-62
2022/09/02 02:30:18;;;;;;;4.20;3.57;;;12.90;99.90;;;-141.84;70.04;19964.25;5053781;28;20208;-62
2022/09/02 02:32:47;;;;;;;4.10;3.70;;;12.80;99.90;;;-141.84;70.17;19982.53;5052997;28;20684;-62
2022/09/02 02:35:18;;;;;;;5.03;3.93;;;12.90;99.90;;;-141.84;70.60;19952.03;5053041;28;20320;-61
2022/09/02 02:37:49;;;;;;;4.97;3.43;;;12.80;99.90;;;-141.84;71.11;19915.47;5053158;28;20229;-62
2022/09/02 02:40:20;;;;;;;5.30;3.57;;;12.70;99.90;;;-141.84;71.08;19909.34;5053050;28;20245;-62
2022/09/02 02:42:52;;;;;;;4.20;3.80;;;12.70;99.90;;;-141.84;71.44;19907.31;5052905;28;20269;-62
2022/09/02 02:45:23;;;;;;;3.57;3.23;;;12.70;99.90;;;-141.84;71.17;19895.13;5053410;28;20190;-62
2022/09/02 02:47:52;;;;;;;5.20;4.13;;;12.60;99.90;;;-141.84;70.70;19931.72;5052229;28;20677;-63
2022/09/02 02:50:22;;;;;;;5.20;4.23;;;12.70;99.90;;;-141.84;70.48;19901.22;5052650;28;20229;-63
2022/09/02 02:52:53;;;;;;;4.47;3.77;;;12.70;99.90;;;-141.84;71.08;19901.22;5053200;28;20322;-63
2022/09/02 02:55:22;;;;;;;4.13;3.80;;;12.70;99.90;;;-141.84;71.38;19889.03;5052581;28;20260;-62
2022/09/02 02:57:52;;;;;;;4.73;3.90;;;12.60;99.90;;;-141.84;70.87;19919.53;5052535;28;20229;-62
2022/09/02 03:00:24;;;;;;;4.13;3.73;;;12.70;99.90;;;-141.84;70.94;19895.13;5053030;28;20211;-62
2022/09/02 03:02:55;;;;;;;3.80;3.33;;;12.70;99.90;;;-141.84;71.31;19893.09;5052363;28;20225;-63
2022/09/02 03:05:24;;;;;;;4.10;3.80;;;12.60;99.90;;;-141.84;70.97;19872.78;5052349;28;20247;-62
2022/09/02 03:07:53;;;;;;;5.37;3.77;;;12.60;99.90;;;-141.84;71.41;19866.69;5052271;28;20776;-62
2022/09/02 03:10:24;;;;;;;4.30;3.90;;;12.60;99.90;;;-141.84;71.01;19880.91;5052395;28;20230;-62
2022/09/02 03:12:54;;;;;;;4.17;3.77;;;12.60;99.90;;;-141.84;70.97;19901.22;5052329;28;20225;-62
2022/09/02 03:15:22;;;;;;;4.57;4.03;;;12.70;99.90;;;-141.84;71.25;19878.88;5051407;28;20593;-63
2022/09/02 03:17:50;;;;;;;4.33;3.70;;;12.60;99.90;;;-141.84;72.00;19878.88;5052060;28;20315;-63
2022/09/02 03:20:19;;;;;;;4.53;4.13;;;12.50;99.90;;;-141.84;71.15;19866.69;5052209;28;20229;-63
2022/09/02 03:22:49;;;;;;;4.33;3.93;;;12.50;99.90;;;-141.84;71.04;19848.38;5051870;28;20271;-62
2022/09/02 03:25:20;;;;;;;3.90;3.60;;;12.60;99.90;;;-141.84;71.16;19826.03;5052216;28;20301;-62
2022/09/02 03:27:49;;;;;;;4.40;4.00;;;12.60;99.90;;;-141.84;72.19;19813.84;5051776;28;20193;-63
2022/09/02 03:30:24;;;;;;;4.67;4.27;;;12.50;99.90;;;-141.84;72.05;19821.97;5052608;28;20201;-62
2022/09/02 03:32:52;;;;;;;6.57;3.80;;;12.40;99.90;;;-141.84;72.29;19821.97;5051624;28;20227;-63
2022/09/02 03:35:22;;;;;;;4.50;4.10;;;12.40;99.90;;;-141.84;72.16;19815.88;5051964;28;20229;-63
2022/09/02 03:37:52;;;;;;;4.97;4.23;;;12.30;99.90;;;-141.84;72.23;19817.91;5051843;28;20233;-63
2022/09/02 03:40:25;;;;;;;6.23;4.47;;;12.40;99.90;;;-141.84;72.39;19828.06;5051920;28;20228;-63
2022/09/02 03:42:55;;;;;;;4.40;4.00;;;12.30;99.90;;;-141.84;72.47;19815.88;5051422;28;20529;-62
2022/09/02 03:45:29;;;;;;;5.33;4.17;;;12.30;99.90;;;-141.84;72.80;19783.34;5052126;28;20200;-63
2022/09/02 03:47:58;;;;;;;6.07;4.40;;;12.30;99.90;;;-141.84;72.96;19815.88;5051573;28;20217;-62
2022/09/02 03:50:34;;;;;;;4.57;4.10;;;12.20;99.90;;;-141.84;72.64;19785.38;5051623;28;20300;-63
2022/09/02 03:53:03;;;;;;;5.23;4.63;;;12.30;99.90;;;-141.84;72.29;19846.34;5051675;28;20233;-63
2022/09/02 03:55:31;;;;;;;6.23;4.50;;;12.30;99.90;;;-141.84;72.59;19779.28;5051614;28;20243;-62
2022/09/02 03:58:00;;;;;;;4.40;4.00;;;12.30;99.90;;;-141.84;73.16;19734.56;5051351;28;20224;-62
2022/09/02 04:00:37;;;;;;;6.00;5.30;;;12.20;99.90;;;-141.84;73.23;19769.13;5051830;28;20553;-62
2022/09/02 04:03:05;;;;;;;5.57;4.50;;;12.20;99.90;;;-141.84;73.43;19767.09;5051608;28;20655;-62
2022/09/02 04:05:34;;;;;;;5.47;4.50;;;12.20;99.90;;;-141.84;72.22;19803.69;5051224;28;20739;-62
2022/09/02 04:08:03;;;;;;;5.77;4.90;;;12.20;99.90;;;-141.84;72.19;19801.66;5051333;28;20228;-62
2022/09/02 04:10:31;;;;;;;5.67;4.30;;;12.20;99.90;;;-141.84;72.64;19785.38;5051538;28;20235;-62
2022/09/02 04:12:59;;;;;;;8.33;5.13;;;12.20;99.90;;;-141.84;72.81;19769.13;5051228;28;20258;-61
2022/09/02 04:15:27;;;;;;;7.43;5.27;;;12.20;99.90;;;-141.84;72.59;19793.50;5052062;28;20208;-62
2022/09/02 04:17:56;;;;;;;4.90;4.37;;;12.20;99.90;;;-141.84;72.89;19797.59;5050685;28;20248;-62
2022/09/02 04:20:24;;;;;;;5.13;4.63;;;12.20;99.90;;;-141.84;72.59;19761.00;5051418;28;20630;-61
2022/09/02 04:22:53;;;;;;;6.20;4.87;;;12.30;99.90;;;-141.84;72.81;19771.16;5050932;28;20220;-62
2022/09/02 04:25:21;;;;;;;5.57;4.67;;;12.20;99.90;;;-141.84;72.87;19750.84;5051081;28;20224;-62
2022/09/02 04:27:54;;;;;;;5.47;4.93;;;12.30;99.90;;;-141.84;73.11;19752.88;5050831;28;20275;-62
2022/09/02 04:30:24;;;;;;;5.77;5.23;;;12.20;99.90;;;-141.84;72.40;19761.00;5051670;28;20227;-62
2022/09/02 04:32:53;;;;;;;6.70;4.93;;;12.30;99.90;;;-141.84;72.99;19742.72;5050570;28;20232;-61
2022/09/02 04:35:22;;;;;;;6.00;4.93;;;12.20;99.90;;;-141.84;72.96;19779.28;5050966;28;20308;-62
2022/09/02 04:37:51;;;;;;;5.97;4.80;;;12.20;99.90;;;-141.84;73.26;19752.88;5050682;28;20731;-61
2022/09/02 04:40:19;;;;;;;5.23;4.73;;;12.20;99.90;;;-141.84;73.15;19708.16;5051031;28;20221;-62
2022/09/02 04:42:47;;;;;;;5.37;4.63;;;12.20;99.90;;;-141.84;73.23;19761.00;5050810;28;20201;-61
2022/09/02 04:45:15;;;;;;;5.40;4.90;;;12.20;99.90;;;-141.84;72.86;19730.50;5051267;28;20212;-64
2022/09/02 04:47:44;;;;;;;6.17;5.27;;;12.20;99.90;;;-141.84;73.17;19748.81;5050533;28;20251;-60
2022/09/02 04:50:13;;;;;;;5.63;5.10;;;12.30;99.90;;;-141.84;73.29;19695.97;5050916;28;20305;-61
2022/09/02 04:52:42;;;;;;;5.43;4.63;;;12.30;99.90;;;-141.84;73.54;19740.69;5050650;28;20606;-62
2022/09/02 04:55:11;;;;;;;5.73;4.90;;;12.30;99.90;;;-141.84;72.87;19742.72;5050942;28;20217;-63
2022/09/02 04:57:39;;;;;;;5.70;5.20;;;12.30;99.90;;;-141.84;72.97;19734.56;5050612;28;20304;-61
2022/09/02 05:00:10;;;;;;;6.73;5.50;;;12.30;99.90;;;-141.84;72.32;19744.75;5051041;28;20572;-62
2022/09/02 05:02:39;;;;;;;5.33;4.83;;;12.40;99.90;;;-141.84;72.29;19771.16;5050547;28;20221;-62
2022/09/02 05:05:09;;;;;;;5.60;5.03;;;12.40;99.90;;;-141.84;72.38;19744.75;5050785;28;20225;-61
2022/09/02 05:07:39;;;;;;;5.67;5.07;;;12.40;99.90;;;-141.84;72.25;19785.38;5050562;28;20736;-62
2022/09/02 05:10:12;;;;;;;8.27;5.27;;;12.50;99.90;;;-141.84;71.83;19787.41;5050629;28;20221;-61
2022/09/02 05:12:40;;;;;;;6.90;5.17;;;12.50;99.90;;;-141.84;71.31;19787.41;5050363;28;20190;-62
2022/09/02 05:15:11;;;;;;;6.27;5.60;;;12.60;99.90;;;-141.84;70.87;19777.25;5050869;28;20204;-62
2022/09/02 05:17:40;;;;;;;7.90;5.30;;;12.70;99.90;;;-141.84;71.04;19769.13;5050297;28;20232;-62
2022/09/02 05:20:10;;;;;;;6.10;4.90;;;12.70;99.90;;;-141.84;70.83;19811.81;5050524;28;20253;-62
2022/09/02 05:22:38;;;;;;;5.67;5.17;;;12.80;99.90;;;-141.84;70.38;19854.50;5049989;28;20229;-62
2022/09/02 05:25:09;;;;;;;5.47;5.07;;;13.00;99.90;;;-141.84;69.38;19929.69;5050738;28;20225;-62
2022/09/02 05:27:38;;;;;;;5.50;5.00;;;13.10;99.90;;;-141.84;68.67;19866.69;5050542;28;20265;-62
2022/09/02 05:30:08;;;;;;;5.60;4.90;;;13.30;99.90;;;-141.84;68.49;19901.22;5051084;28;20548;-63
2022/09/02 05:32:36;;;;;;;7.53;5.83;;;13.50;99.90;;;-141.84;67.96;19964.25;5049955;28;20716;-62
2022/09/02 05:35:06;;;;;;;6.23;4.87;;;13.70;99.90;;;-141.84;67.50;19945.94;5050429;28;20225;-62
2022/09/02 05:37:35;;;;;;;9.17;5.00;;;13.80;99.90;;;-141.84;67.31;19933.75;5050296;28;20240;-62
2022/09/02 05:40:05;;;;;;;6.80;4.80;;;13.90;99.90;;;-141.84;65.92;19996.75;5053215;28;20775;-61
2022/09/02 05:42:36;;;;;;;5.60;4.83;;;14.10;99.90;;;-141.84;65.91;20010.97;5054099;28;20193;-61
2022/09/02 05:45:06;;;;;;;5.20;4.70;;;14.20;99.90;;;-141.84;65.87;20078.06;5034195;28;20202;-61
2022/09/02 05:47:35;;;;;;;5.40;4.90;;;14.40;99.90;;;-141.84;64.55;20086.19;5033734;28;20487;-62
2022/09/02 05:50:03;;;;;;;5.37;4.87;;;14.50;99.90;;;-141.84;64.72;20084.16;5034015;28;20236;-61
2022/09/02 05:52:34;;;;;;;6.90;4.43;;;14.50;99.90;;;-141.84;64.92;20061.78;5034012;28;20654;-62
2022/09/02 05:55:03;;;;;;;6.13;4.70;;;14.60;99.90;;;-141.84;64.34;20094.31;5033698;28;20226;-61
2022/09/02 05:57:31;;;;;;;5.00;4.57;;;14.70;99.90;;;-141.84;63.33;20167.47;5033714;28;20214;-62
2022/09/02 06:00:01;;;;;;;5.43;4.93;;;14.80;99.90;;;-141.84;62.73;20208.13;5033874;28;20202;-61
2022/09/02 06:02:29;;;;;;;5.90;4.87;;;15.00;99.90;;;-141.84;62.18;20224.41;5033442;28;20226;-62
2022/09/02 06:04:57;;;;;;;5.57;4.20;;;15.10;99.90;;;-141.84;62.52;20238.63;5033650;28;20291;-61
2022/09/02 06:07:25;;;;;;;7.63;4.80;;;15.20;99.90;;;-141.84;62.19;20234.56;5033651;28;20229;-61
2022/09/02 06:09:54;;;;;;;10.35;4.43;;;15.30;99.90;;;-141.84;61.76;20295.53;5033640;28;20229;-61
2022/09/02 06:12:22;;;;;;;5.70;4.30;;;15.40;99.90;;;-141.84;61.33;20275.22;5033856;28;20781;-61
2022/09/02 06:14:50;;;;;;;5.63;3.97;;;15.50;99.90;;;-141.84;62.02;20285.38;5051447;28;20228;-61
2022/09/02 06:17:20;;;;;;;5.73;3.93;;;15.50;99.90;;;-141.84;61.09;20273.19;5053124;28;20236;-62
2022/09/02 06:19:48;;;;;;;4.20;3.80;;;15.60;99.90;;;-141.84;60.71;20305.69;5052909;28;20221;-62
2022/09/02 06:22:19;;;;;;;4.63;3.87;;;15.70;99.90;;;-141.84;60.53;20342.28;5052931;28;20763;-61
2022/09/02 06:24:47;;;;;;;4.60;3.60;;;15.70;99.90;;;-141.84;59.81;20332.13;5053293;28;20209;-61
2022/09/02 06:27:15;;;;;;;6.10;3.25;;;15.80;99.90;;;-141.84;59.78;20368.72;5053530;28;20198;-60
2022/09/02 06:29:44;;;;;;;4.35;3.60;;;15.80;99.90;;;-141.84;59.32;20413.44;5052919;28;20230;-61
2022/09/02 06:32:13;;;;;;;5.05;3.30;;;15.90;99.90;;;-141.84;59.68;20389.03;5052926;28;20236;-61
2022/09/02 06:34:42;;;;;;;3.85;3.10;;;15.90;99.90;;;-141.84;59.46;20374.81;5052592;28;20225;-62
2022/09/02 06:37:10;;;;;;;6.07;3.90;;;15.90;99.90;;;-141.84;59.06;20409.38;5052684;28;20233;-62
2022/09/02 06:39:42;;;;;;;3.92;3.10;;;16.00;99.90;;;-141.84;59.00;20415.47;5053064;28;20197;-63
2022/09/02 06:42:10;;;;;;;4.55;3.63;;;16.00;99.90;;;-141.84;58.36;20452.06;5053159;28;20236;-62
2022/09/02 06:44:39;;;;;;;3.47;2.97;;;16.00;99.90;;;-141.84;58.72;20443.91;5052689;28;20231;-61
2022/09/02 06:47:07;;;;;;;4.63;3.30;;;16.10;99.90;;;-141.84;58.70;20447.97;5052901;28;20235;-61
2022/09/02 06:49:35;;;;;;;5.60;3.08;;;16.10;99.90;;;-141.84;58.63;20454.09;5051534;28;20623;-61
2022/09/02 06:52:05;;;;;;;3.85;3.00;;;16.10;99.90;;;-141.84;58.12;20476.44;5052765;28;20221;-62
2022/09/02 06:54:33;;;;;;;5.53;2.75;;;16.20;99.90;;;-141.84;57.62;20460.19;5052768;28;20205;-62
2022/09/02 06:57:01;;;;;;;4.30;2.80;;;16.20;99.90;;;-141.84;56.79;20525.22;5053084;28;20202;-61
2022/09/02 06:59:29;;;;;;;2.67;2.40;;;16.30;99.90;;;-141.84;56.67;20559.78;5052402;28;20225;-61
2022/09/02 07:01:57;;;;;;;3.53;2.15;;;16.40;99.90;;;-141.84;57.09;20541.50;5052530;28;20237;-62
2022/09/02 07:07:15;;;;;;;4.07;2.45;;;16.40;99.90;;;-141.84;56.56;20513.03;5018682;28;20229;-61
2022/09/02 07:09:43;;;;;;;3.15;2.25;;;16.50;99.90;;;-141.84;55.41;20569.94;5052164;28;20201;-62
2022/09/02 07:12:11;;;;;;;4.32;2.33;;;16.70;99.90;;;-141.84;54.53;20639.06;5052518;28;20228;-63
2022/09/02 07:14:43;;;;;;;2.95;1.80;;;16.80;99.90;;;-141.84;54.69;20647.19;5052162;28;20669;-62
2022/09/02 07:17:16;;;;;;;2.90;2.10;;;16.80;99.90;;;-141.84;54.69;20618.72;5052228;28;20311;-61
2022/09/02 07:19:45;;;;;;;3.67;2.00;;;16.90;99.90;;;-141.84;54.15;20669.56;5051875;28;20643;-62
2022/09/02 07:22:13;;;;;;;2.58;1.83;;;17.00;99.90;;;-141.84;53.63;20663.47;5052099;28;20217;-61
2022/09/02 07:24:47;;;;;;;3.33;1.80;;;17.10;99.90;;;-141.84;52.94;20706.16;5052166;28;20194;-63
2022/09/02 07:27:15;;;;;;;2.88;2.00;;;17.30;99.90;;;-141.84;53.34;20724.44;5052502;28;20300;-62
2022/09/02 07:29:47;;;;;;;2.78;1.60;;;17.30;99.90;;;-141.84;52.67;20746.81;5051964;28;20734;-63
2022/09/02 07:32:16;;;;;;;1.80;1.60;;;17.40;99.90;;;-141.84;53.31;20771.19;5052071;28;20716;-62
2022/09/02 07:34:44;;;;;;;1.95;1.60;;;17.50;99.90;;;-141.84;51.71;20815.91;5051813;28;20225;-63
2022/09/02 07:37:12;;;;;;;3.25;1.92;;;17.60;99.90;;;-141.84;51.62;20809.81;5051878;28;20221;-61
2022/09/02 07:39:42;;;;;;;1.88;1.45;;;17.70;99.90;;;-141.84;51.50;20820.00;5051798;28;20233;-62
2022/09/02 07:42:12;;;;;;;2.70;1.80;;;17.70;99.90;;;-141.84;51.04;20844.38;5052252;28;20205;-61
2022/09/02 07:44:40;;;;;;;2.45;1.85;;;17.90;99.90;;;-141.84;49.87;20919.59;5048483;28;20218;-61
2022/09/02 07:47:08;;;;;;;2.55;1.38;;;17.90;99.90;;;-141.84;49.87;20891.13;5051482;28;20232;-62
2022/09/02 07:49:38;;;;;;;1.70;1.38;;;18.00;99.90;;;-141.84;49.17;20915.53;5051054;28;20248;-63
2022/09/02 07:52:26;;;;;;;2.63;1.50;;;18.10;99.90;;;-141.84;48.96;20935.88;5051059;28;20236;-62
2022/09/02 07:54:55;;;;;;;3.05;1.70;;;18.20;99.90;;;-141.84;48.06;20966.34;5051658;28;20229;-63
2022/09/02 07:57:24;;;;;;;2.88;1.50;;;18.30;99.90;;;-141.84;48.48;20952.13;5051772;28;20309;-63
2022/09/02 07:59:52;;;;;;;3.83;1.75;;;18.40;99.90;;;-141.84;48.30;20958.22;5051191;28;20236;-62
2022/09/02 08:02:20;;;;;;;2.42;1.50;;;18.40;99.90;;;-141.84;48.46;20986.69;5050706;28;20250;-62
2022/09/02 08:04:49;;;;;;;1.73;1.30;;;18.50;99.90;;;-141.84;47.89;21063.94;5051119;28;20252;-63
2022/09/02 08:07:22;;;;;;;2.17;1.50;;;18.60;99.90;;;-141.84;47.81;21033.44;5051081;28;20223;-64
2022/09/02 08:09:51;;;;;;;1.33;1.23;;;18.60;99.90;;;-141.84;47.19;21031.41;5051501;28;25324;-65
2022/09/02 08:12:19;;;;;;;2.38;1.20;;;18.70;99.90;;;-141.84;47.31;21057.84;5051256;28;20198;-65
2022/09/02 08:14:50;;;;;;;2.28;1.33;;;18.70;99.90;;;-141.84;47.12;21108.66;5032935;28;20253;-63
2022/09/02 08:17:18;;;;;;;2.25;1.13;;;18.80;99.90;;;-141.84;46.64;21061.91;5030948;28;20240;-63
2022/09/02 08:19:46;;;;;;;2.35;1.10;;;18.90;99.90;;;-141.84;46.97;21116.78;5030875;28;20233;-63
2022/09/02 08:22:15;;;;;;;3.78;1.27;;;19.00;99.90;;;-141.84;45.62;21157.47;5030689;28;20605;-63
2022/09/02 08:24:43;;;;;;;2.20;1.40;;;19.10;99.90;;;-141.84;46.19;21159.50;5031212;28;20182;-63
2022/09/02 08:27:11;;;;;;;2.38;1.33;;;19.20;99.90;;;-141.84;46.19;21161.53;5031402;28;20197;-64
2022/09/02 08:29:39;;;;;;;2.75;1.35;;;19.20;99.90;;;-141.84;45.71;21163.56;5030862;28;20452;-65
2022/09/02 08:32:08;;;;;;;3.25;1.45;;;19.30;99.90;;;-141.84;45.36;21200.16;5030659;28;20241;-64
2022/09/02 08:34:36;;;;;;;1.85;1.40;;;19.40;99.90;;;-141.84;45.93;21232.69;5030658;28;20234;-64
2022/09/02 08:37:05;;;;;;;1.85;1.10;;;19.50;99.90;;;-141.84;45.21;21275.38;5031913;28;20392;-63
2022/09/02 08:39:33;;;;;;;1.52;1.17;;;19.60;99.90;;;-141.84;44.14;21261.16;5050693;28;20562;-62
2022/09/02 08:42:13;;;;;;;1.50;1.25;;;19.60;99.90;;;-141.84;44.64;21275.38;5050866;28;20201;-62
2022/09/02 08:44:42;;;;;;;4.95;1.60;;;19.60;99.90;;;-141.84;44.32;21297.75;5050482;28;20225;-62
2022/09/02 08:47:18;;;;;;;1.92;1.35;;;19.70;99.90;;;-141.84;44.53;21293.69;5050522;28;20237;-62
2022/09/02 08:49:52;;;;;;;2.20;1.38;;;19.80;99.90;;;-141.84;44.21;21316.03;5050440;28;20229;-62
2022/09/02 08:52:31;;;;;;;1.17;0.93;;;19.90;99.90;;;-141.84;44.38;21293.69;5050539;28;20233;-63
2022/09/02 08:55:01;;;;;;;3.58;1.40;;;19.90;99.90;;;-141.84;44.12;21366.88;5050442;28;20696;-63
2022/09/02 08:57:31;;;;;;;3.08;1.40;;;20.00;99.90;;;-141.84;43.92;21299.78;5050700;28;20208;-63
2022/09/02 09:00:04;;;;;;;2.55;1.20;;;20.00;99.90;;;-141.84;43.45;21368.91;5050650;28;20232;-63
2022/09/02 09:02:55;;;;;;;1.70;1.00;;;20.10;99.90;;;-141.84;43.16;21399.41;5050386;28;20304;-62
2022/09/02 09:05:38;;;;;;;3.30;1.23;;;20.20;99.90;;;-141.84;43.46;21427.88;5050304;28;20229;-60
2022/09/02 09:08:19;;;;;;;3.90;1.20;;;20.30;99.90;;;-141.84;42.70;21456.34;5050287;28;20507;-61
2022/09/02 09:11:01;;;;;;;3.25;1.10;;;20.40;99.90;;;-141.84;42.92;21431.94;5050476;28;20233;-64
2022/09/02 09:14:12;;;;;;;1.90;1.20;;;20.40;99.90;;;-141.84;41.56;21446.16;5050711;28;20227;-60
2022/09/02 09:16:48;;;;;;;2.97;1.00;;;20.50;99.90;;;-141.84;41.41;21427.88;5054226;28;20240;-62
2022/09/02 09:19:33;;;;;;;0.88;0.88;;;20.40;99.90;;;-141.84;41.77;21431.94;5053744;28;20742;-60
2022/09/02 09:22:02;;;;;;;1.67;0.98;;;20.40;99.90;;;-141.84;41.53;21464.47;5054087;28;20450;-59
2022/09/02 09:24:38;;;;;;;2.47;1.17;;;20.40;99.90;;;-141.84;41.83;21464.47;5054245;28;20577;-60
2022/09/02 09:27:12;;;;;;;1.80;1.25;;;20.40;99.90;;;-141.84;41.40;21446.16;5053771;28;20685;-60
2022/09/02 09:29:41;;;;;;;1.30;1.20;;;20.40;99.90;;;-141.84;41.48;21499.03;5053674;28;20235;-61
2022/09/02 09:32:21;;;;;;;3.05;1.35;;;20.40;99.90;;;-141.84;41.36;21476.66;5053403;28;20236;-60
2022/09/02 09:35:01;;;;;;;3.75;1.05;;;20.50;99.90;;;-141.84;41.65;21492.94;5053351;28;20229;-60
2022/09/02 09:37:37;;;;;;;1.52;1.20;;;20.60;99.90;;;-141.84;41.06;21476.66;5053394;28;20602;-61
2022/09/02 09:40:30;;;;;;;3.28;1.10;;;20.60;99.90;;;-141.84;41.63;21503.09;5053621;28;20225;-61
2022/09/02 09:43:13;;;;;;;1.58;1.10;;;20.60;99.90;;;-141.84;40.18;21509.19;5052993;28;20227;-62
2022/09/02 09:45:45;;;;;;;1.38;0.90;;;20.70;99.90;;;-141.84;41.02;21533.59;5053832;28;20557;-62
2022/09/02 09:48:27;;;;;;;1.00;0.95;;;20.70;99.90;;;-141.84;40.26;21555.97;5053665;28;20618;-61
2022/09/02 09:51:21;;;;;;;1.20;0.80;;;20.70;99.90;;;-141.84;39.13;21568.16;5053335;28;20716;-62
2022/09/02 09:53:49;;;;;;;1.30;1.00;;;20.90;99.90;;;-141.84;39.26;21592.56;5053491;28;20229;-62
2022/09/02 09:56:32;;;;;;;2.15;1.00;;;20.90;99.90;;;-141.84;38.74;21558.00;5053386;28;20229;-63
2022/09/02 09:59:28;;;;;;;1.30;0.98;;;20.90;99.90;;;-141.84;39.30;21643.38;5053328;28;20232;-63
2022/09/02 10:01:57;;;;;;;1.23;0.85;;;21.00;99.90;;;-141.84;39.16;21625.09;5053337;28;20321;-63
2022/09/02 10:04:30;;;;;;;3.50;0.80;;;21.10;99.90;;;-141.84;38.75;21677.97;5053161;28;20221;-66
2022/09/02 10:07:13;;;;;;;1.90;0.80;;;21.20;99.90;;;-141.84;38.01;21708.47;5033440;28;20330;-64
2022/09/02 10:09:41;;;;;;;1.88;0.80;;;21.30;99.90;;;-141.84;36.99;21724.72;5033601;28;20204;-61
2022/09/02 10:12:13;;;;;;;3.00;0.80;;;21.40;99.90;;;-141.84;37.80;21708.47;5033876;28;20202;-61
2022/09/02 10:14:46;;;;;;;1.40;0.73;;;21.40;99.90;;;-141.84;38.21;21712.53;5049893;28;20221;-60
2022/09/02 10:17:40;;;;;;;3.08;0.90;;;21.50;99.90;;;-141.84;37.02;21761.31;5050139;28;20248;-61
2022/09/02 10:20:18;;;;;;;2.70;1.15;;;21.50;99.90;;;-141.84;37.28;21753.19;5052778;28;20235;-61
2022/09/02 10:23:26;;;;;;;2.20;1.40;;;21.60;99.90;;;-141.84;37.63;21789.78;5052826;28;20313;-61